sensor_id;sensor_type;location;lat;lon;timestamp;P1;durP1;ratioP1;P2;durP2;ratioP2
6823;SDS011;58633;49.470;11.004;2023-05-15T00:02:08;6.80;;;6.10;;
6823;SDS011;58633;49.470;11.004;2023-05-15T00:04:34;6.53;;;5.57;;
6823;SDS011;58633;49.470;11.004;2023-05-15T00:07:00;7.18;;;5.63;;
6823;SDS011;58633;49.470;11.004;2023-05-15T00:09:26;7.60;;;6.00;;
6823;SDS011;58633;49.470;11.004;2023-05-15T00:11:51;6.07;;;5.45;;
6823;SDS011;58633;49.470;11.004;2023-05-15T00:14:17;6.72;;;5.50;;
6823;SDS011;58633;49.470;11.004;2023-05-15T00:16:42;7.40;;;5.50;;
6823;SDS011;58633;49.470;11.004;2023-05-15T00:19:08;6.68;;;6.07;;
6823;SDS011;58633;49.470;11.004;2023-05-15T00:21:33;7.00;;;6.18;;
6823;SDS011;58633;49.470;11.004;2023-05-15T00:23:59;6.60;;;5.80;;
6823;SDS011;58633;49.470;11.004;2023-05-15T00:26:25;6.30;;;5.70;;
6823;SDS011;58633;49.470;11.004;2023-05-15T00:28:50;8.23;;;5.97;;
6823;SDS011;58633;49.470;11.004;2023-05-15T00:31:16;6.55;;;5.85;;
6823;SDS011;58633;49.470;11.004;2023-05-15T00:33:42;6.93;;;5.88;;
6823;SDS011;58633;49.470;11.004;2023-05-15T00:36:07;8.23;;;6.20;;
6823;SDS011;58633;49.470;11.004;2023-05-15T00:38:33;6.60;;;5.90;;
6823;SDS011;58633;49.470;11.004;2023-05-15T00:41:00;6.95;;;5.88;;
6823;SDS011;58633;49.470;11.004;2023-05-15T00:43:26;8.10;;;6.40;;
6823;SDS011;58633;49.470;11.004;2023-05-15T00:45:52;6.85;;;6.07;;
6823;SDS011;58633;49.470;11.004;2023-05-15T00:48:18;7.35;;;6.20;;
6823;SDS011;58633;49.470;11.004;2023-05-15T00:50:47;6.82;;;6.13;;
6823;SDS011;58633;49.470;11.004;2023-05-15T00:53:15;6.80;;;6.10;;
6823;SDS011;58633;49.470;11.004;2023-05-15T00:55:43;10.20;;;6.93;;
6823;SDS011;58633;49.470;11.004;2023-05-15T00:58:10;8.43;;;7.10;;
6823;SDS011;58633;49.470;11.004;2023-05-15T01:00:38;6.80;;;6.10;;
6823;SDS011;58633;49.470;11.004;2023-05-15T01:03:04;7.32;;;5.93;;
6823;SDS011;58633;49.470;11.004;2023-05-15T01:05:30;7.03;;;6.25;;
6823;SDS011;58633;49.470;11.004;2023-05-15T01:08:19;8.38;;;7.05;;
6823;SDS011;58633;49.470;11.004;2023-05-15T01:10:57;7.93;;;7.00;;
6823;SDS011;58633;49.470;11.004;2023-05-15T01:13:24;7.90;;;6.93;;
6823;SDS011;58633;49.470;11.004;2023-05-15T01:15:50;7.78;;;6.97;;
6823;SDS011;58633;49.470;11.004;2023-05-15T01:18:16;7.97;;;7.18;;
6823;SDS011;58633;49.470;11.004;2023-05-15T01:31:54;8.25;;;6.43;;
6823;SDS011;58633;49.470;11.004;2023-05-15T01:34:52;7.38;;;6.45;;
6823;SDS011;58633;49.470;11.004;2023-05-15T01:37:18;8.50;;;7.18;;
6823;SDS011;58633;49.470;11.004;2023-05-15T01:39:48;8.10;;;6.72;;
6823;SDS011;58633;49.470;11.004;2023-05-15T01:42:22;9.05;;;6.68;;
6823;SDS011;58633;49.470;11.004;2023-05-15T01:44:52;6.95;;;6.03;;
6823;SDS011;58633;49.470;11.004;2023-05-15T01:47:27;7.10;;;5.93;;
6823;SDS011;58633;49.470;11.004;2023-05-15T01:50:04;9.95;;;6.60;;
6823;SDS011;58633;49.470;11.004;2023-05-15T01:52:34;9.57;;;6.28;;
6823;SDS011;58633;49.470;11.004;2023-05-15T01:55:04;8.68;;;6.40;;
6823;SDS011;58633;49.470;11.004;2023-05-15T01:57:32;6.75;;;6.00;;
6823;SDS011;58633;49.470;11.004;2023-05-15T01:59:59;9.77;;;6.60;;
6823;SDS011;58633;49.470;11.004;2023-05-15T02:02:26;8.55;;;6.50;;
6823;SDS011;58633;49.470;11.004;2023-05-15T02:04:53;7.10;;;6.05;;
6823;SDS011;58633;49.470;11.004;2023-05-15T02:07:19;8.18;;;6.30;;
6823;SDS011;58633;49.470;11.004;2023-05-15T02:09:45;9.25;;;6.40;;
6823;SDS011;58633;49.470;11.004;2023-05-15T02:12:12;7.65;;;6.80;;
6823;SDS011;58633;49.470;11.004;2023-05-15T02:14:38;9.40;;;6.57;;
6823;SDS011;58633;49.470;11.004;2023-05-15T02:17:05;7.43;;;6.65;;
6823;SDS011;58633;49.470;11.004;2023-05-15T02:19:31;8.57;;;7.28;;
6823;SDS011;58633;49.470;11.004;2023-05-15T02:21:57;8.25;;;6.65;;
6823;SDS011;58633;49.470;11.004;2023-05-15T02:24:23;9.10;;;7.00;;
6823;SDS011;58633;49.470;11.004;2023-05-15T02:27:10;9.23;;;7.50;;
6823;SDS011;58633;49.470;11.004;2023-05-15T02:32:42;7.72;;;6.75;;
6823;SDS011;58633;49.470;11.004;2023-05-15T02:35:24;10.63;;;7.30;;
6823;SDS011;58633;49.470;11.004;2023-05-15T02:37:52;7.40;;;6.32;;
6823;SDS011;58633;49.470;11.004;2023-05-15T02:40:20;9.05;;;7.32;;
6823;SDS011;58633;49.470;11.004;2023-05-15T02:42:49;7.40;;;6.60;;
6823;SDS011;58633;49.470;11.004;2023-05-15T02:45:18;8.90;;;6.97;;
6823;SDS011;58633;49.470;11.004;2023-05-15T02:47:43;7.47;;;6.68;;
6823;SDS011;58633;49.470;11.004;2023-05-15T02:50:09;8.20;;;7.30;;
6823;SDS011;58633;49.470;11.004;2023-05-15T02:52:35;8.73;;;7.50;;
6823;SDS011;58633;49.470;11.004;2023-05-15T02:55:01;8.07;;;7.28;;
6823;SDS011;58633;49.470;11.004;2023-05-15T02:57:27;7.95;;;6.97;;
6823;SDS011;58633;49.470;11.004;2023-05-15T02:59:54;8.43;;;7.25;;
6823;SDS011;58633;49.470;11.004;2023-05-15T03:02:21;7.85;;;7.05;;
6823;SDS011;58633;49.470;11.004;2023-05-15T03:04:47;7.55;;;6.60;;
6823;SDS011;58633;49.470;11.004;2023-05-15T03:07:12;8.02;;;7.22;;
6823;SDS011;58633;49.470;11.004;2023-05-15T03:09:38;8.98;;;7.28;;
6823;SDS011;58633;49.470;11.004;2023-05-15T03:12:04;7.78;;;6.93;;
6823;SDS011;58633;49.470;11.004;2023-05-15T03:14:31;9.38;;;7.53;;
6823;SDS011;58633;49.470;11.004;2023-05-15T03:16:56;9.55;;;7.25;;
6823;SDS011;58633;49.470;11.004;2023-05-15T03:19:22;7.93;;;7.13;;
6823;SDS011;58633;49.470;11.004;2023-05-15T03:21:47;8.75;;;7.32;;
6823;SDS011;58633;49.470;11.004;2023-05-15T03:24:13;9.20;;;7.90;;
6823;SDS011;58633;49.470;11.004;2023-05-15T03:26:38;9.48;;;7.90;;
6823;SDS011;58633;49.470;11.004;2023-05-15T03:29:04;9.70;;;7.28;;
6823;SDS011;58633;49.470;11.004;2023-05-15T03:31:30;8.15;;;7.07;;
6823;SDS011;58633;49.470;11.004;2023-05-15T03:33:55;8.55;;;6.50;;
6823;SDS011;58633;49.470;11.004;2023-05-15T03:36:21;8.80;;;7.43;;
6823;SDS011;58633;49.470;11.004;2023-05-15T03:38:46;9.38;;;6.75;;
6823;SDS011;58633;49.470;11.004;2023-05-15T03:41:12;8.88;;;7.47;;
6823;SDS011;58633;49.470;11.004;2023-05-15T03:43:37;7.38;;;6.68;;
6823;SDS011;58633;49.470;11.004;2023-05-15T03:46:03;8.50;;;7.03;;
6823;SDS011;58633;49.470;11.004;2023-05-15T03:48:29;9.35;;;7.15;;
6823;SDS011;58633;49.470;11.004;2023-05-15T03:50:55;7.70;;;6.88;;
6823;SDS011;58633;49.470;11.004;2023-05-15T03:53:20;8.00;;;7.20;;
6823;SDS011;58633;49.470;11.004;2023-05-15T03:55:46;9.00;;;7.47;;
6823;SDS011;58633;49.470;11.004;2023-05-15T03:58:12;8.13;;;6.90;;
6823;SDS011;58633;49.470;11.004;2023-05-15T04:00:37;6.63;;;5.85;;
6823;SDS011;58633;49.470;11.004;2023-05-15T04:03:03;7.65;;;6.25;;
6823;SDS011;58633;49.470;11.004;2023-05-15T04:05:29;8.20;;;6.55;;
6823;SDS011;58633;49.470;11.004;2023-05-15T04:07:55;7.03;;;6.00;;
6823;SDS011;58633;49.470;11.004;2023-05-15T04:10:21;6.80;;;6.10;;
6823;SDS011;58633;49.470;11.004;2023-05-15T04:12:46;7.63;;;6.63;;
6823;SDS011;58633;49.470;11.004;2023-05-15T04:15:19;7.40;;;6.60;;
6823;SDS011;58633;49.470;11.004;2023-05-15T04:17:47;9.38;;;6.88;;
6823;SDS011;58633;49.470;11.004;2023-05-15T04:20:15;8.45;;;6.80;;
6823;SDS011;58633;49.470;11.004;2023-05-15T04:22:42;8.63;;;6.72;;
6823;SDS011;58633;49.470;11.004;2023-05-15T04:25:08;7.75;;;6.60;;
6823;SDS011;58633;49.470;11.004;2023-05-15T04:27:35;9.63;;;6.40;;
6823;SDS011;58633;49.470;11.004;2023-05-15T04:30:02;7.82;;;6.00;;
6823;SDS011;58633;49.470;11.004;2023-05-15T04:32:28;8.73;;;6.85;;
6823;SDS011;58633;49.470;11.004;2023-05-15T04:34:54;10.82;;;6.80;;
6823;SDS011;58633;49.470;11.004;2023-05-15T04:37:20;8.52;;;6.60;;
6823;SDS011;58633;49.470;11.004;2023-05-15T04:39:46;7.47;;;6.68;;
6823;SDS011;58633;49.470;11.004;2023-05-15T04:42:11;10.80;;;6.95;;
6823;SDS011;58633;49.470;11.004;2023-05-15T04:44:37;8.25;;;6.70;;
6823;SDS011;58633;49.470;11.004;2023-05-15T04:47:03;8.25;;;7.32;;
6823;SDS011;58633;49.470;11.004;2023-05-15T04:49:29;8.73;;;6.53;;
6823;SDS011;58633;49.470;11.004;2023-05-15T04:51:54;10.13;;;7.45;;
6823;SDS011;58633;49.470;11.004;2023-05-15T04:54:20;8.10;;;7.20;;
6823;SDS011;58633;49.470;11.004;2023-05-15T04:56:46;12.80;;;7.35;;
6823;SDS011;58633;49.470;11.004;2023-05-15T04:59:11;10.40;;;7.68;;
6823;SDS011;58633;49.470;11.004;2023-05-15T05:01:38;9.77;;;7.13;;
6823;SDS011;58633;49.470;11.004;2023-05-15T05:04:04;9.43;;;6.82;;
6823;SDS011;58633;49.470;11.004;2023-05-15T05:06:29;7.90;;;7.00;;
6823;SDS011;58633;49.470;11.004;2023-05-15T05:08:55;8.70;;;7.00;;
6823;SDS011;58633;49.470;11.004;2023-05-15T05:11:20;9.02;;;7.30;;
6823;SDS011;58633;49.470;11.004;2023-05-15T05:13:46;12.70;;;7.78;;
6823;SDS011;58633;49.470;11.004;2023-05-15T05:16:12;9.23;;;7.05;;
6823;SDS011;58633;49.470;11.004;2023-05-15T05:18:38;10.48;;;7.65;;
6823;SDS011;58633;49.470;11.004;2023-05-15T05:21:03;11.98;;;8.50;;
6823;SDS011;58633;49.470;11.004;2023-05-15T05:23:29;10.18;;;8.02;;
6823;SDS011;58633;49.470;11.004;2023-05-15T05:25:55;9.27;;;7.95;;
6823;SDS011;58633;49.470;11.004;2023-05-15T05:28:21;11.20;;;8.77;;
6823;SDS011;58633;49.470;11.004;2023-05-15T05:30:46;14.38;;;8.68;;
6823;SDS011;58633;49.470;11.004;2023-05-15T05:33:12;11.18;;;8.05;;
6823;SDS011;58633;49.470;11.004;2023-05-15T05:35:38;11.07;;;8.35;;
6823;SDS011;58633;49.470;11.004;2023-05-15T05:38:04;8.98;;;7.88;;
6823;SDS011;58633;49.470;11.004;2023-05-15T05:40:29;9.00;;;7.60;;
6823;SDS011;58633;49.470;11.004;2023-05-15T05:43:01;11.50;;;7.97;;
6823;SDS011;58633;49.470;11.004;2023-05-15T05:45:27;8.95;;;7.97;;
6823;SDS011;58633;49.470;11.004;2023-05-15T05:47:54;10.52;;;7.80;;
6823;SDS011;58633;49.470;11.004;2023-05-15T05:50:20;8.60;;;7.70;;
6823;SDS011;58633;49.470;11.004;2023-05-15T05:52:46;9.27;;;7.70;;
6823;SDS011;58633;49.470;11.004;2023-05-15T05:55:11;12.25;;;7.82;;
6823;SDS011;58633;49.470;11.004;2023-05-15T05:57:37;9.70;;;8.25;;
6823;SDS011;58633;49.470;11.004;2023-05-15T06:00:02;9.50;;;8.02;;
6823;SDS011;58633;49.470;11.004;2023-05-15T06:02:35;10.27;;;8.18;;
6823;SDS011;58633;49.470;11.004;2023-05-15T06:05:02;9.68;;;8.10;;
6823;SDS011;58633;49.470;11.004;2023-05-15T06:07:28;9.38;;;7.65;;
6823;SDS011;58633;49.470;11.004;2023-05-15T06:09:54;7.75;;;6.95;;
6823;SDS011;58633;49.470;11.004;2023-05-15T06:12:19;8.63;;;7.25;;
6823;SDS011;58633;49.470;11.004;2023-05-15T06:14:45;10.70;;;7.70;;
6823;SDS011;58633;49.470;11.004;2023-05-15T06:17:11;10.18;;;7.57;;
6823;SDS011;58633;49.470;11.004;2023-05-15T06:19:36;10.77;;;7.72;;
6823;SDS011;58633;49.470;11.004;2023-05-15T06:22:02;9.57;;;7.43;;
6823;SDS011;58633;49.470;11.004;2023-05-15T06:24:28;9.20;;;7.80;;
6823;SDS011;58633;49.470;11.004;2023-05-15T06:26:53;9.50;;;7.28;;
6823;SDS011;58633;49.470;11.004;2023-05-15T06:29:20;9.30;;;7.15;;
6823;SDS011;58633;49.470;11.004;2023-05-15T06:31:45;8.30;;;7.43;;
6823;SDS011;58633;49.470;11.004;2023-05-15T06:34:11;7.85;;;7.00;;
6823;SDS011;58633;49.470;11.004;2023-05-15T06:36:36;8.02;;;6.90;;
6823;SDS011;58633;49.470;11.004;2023-05-15T06:39:02;9.77;;;7.47;;
6823;SDS011;58633;49.470;11.004;2023-05-15T06:41:28;9.88;;;7.57;;
6823;SDS011;58633;49.470;11.004;2023-05-15T06:43:53;7.82;;;7.03;;
6823;SDS011;58633;49.470;11.004;2023-05-15T06:46:19;7.82;;;7.03;;
6823;SDS011;58633;49.470;11.004;2023-05-15T06:48:46;8.77;;;7.25;;
6823;SDS011;58633;49.470;11.004;2023-05-15T06:51:11;8.07;;;7.13;;
6823;SDS011;58633;49.470;11.004;2023-05-15T06:53:37;7.80;;;7.00;;
6823;SDS011;58633;49.470;11.004;2023-05-15T06:56:02;8.68;;;7.25;;
6823;SDS011;58633;49.470;11.004;2023-05-15T06:58:28;9.88;;;7.40;;
6823;SDS011;58633;49.470;11.004;2023-05-15T07:00:54;9.43;;;6.90;;
6823;SDS011;58633;49.470;11.004;2023-05-15T07:03:20;8.60;;;7.35;;
6823;SDS011;58633;49.470;11.004;2023-05-15T07:05:45;8.48;;;7.40;;
6823;SDS011;58633;49.470;11.004;2023-05-15T07:08:11;7.47;;;6.63;;
6823;SDS011;58633;49.470;11.004;2023-05-15T07:10:37;9.20;;;7.43;;
6823;SDS011;58633;49.470;11.004;2023-05-15T07:13:02;8.65;;;7.50;;
6823;SDS011;58633;49.470;11.004;2023-05-15T07:15:28;8.13;;;6.85;;
6823;SDS011;58633;49.470;11.004;2023-05-15T07:17:53;7.80;;;6.78;;
6823;SDS011;58633;49.470;11.004;2023-05-15T07:20:19;7.50;;;6.72;;
6823;SDS011;58633;49.470;11.004;2023-05-15T07:22:45;7.10;;;6.40;;
6823;SDS011;58633;49.470;11.004;2023-05-15T07:25:10;9.18;;;6.95;;
6823;SDS011;58633;49.470;11.004;2023-05-15T07:27:36;9.60;;;6.93;;
6823;SDS011;58633;49.470;11.004;2023-05-15T07:30:02;7.18;;;6.47;;
6823;SDS011;58633;49.470;11.004;2023-05-15T07:32:28;7.75;;;6.35;;
6823;SDS011;58633;49.470;11.004;2023-05-15T07:34:54;7.00;;;6.00;;
6823;SDS011;58633;49.470;11.004;2023-05-15T07:37:20;8.35;;;6.97;;
6823;SDS011;58633;49.470;11.004;2023-05-15T07:39:47;8.77;;;6.90;;
6823;SDS011;58633;49.470;11.004;2023-05-15T07:42:12;7.63;;;6.07;;
6823;SDS011;58633;49.470;11.004;2023-05-15T07:44:38;7.50;;;6.50;;
6823;SDS011;58633;49.470;11.004;2023-05-15T07:47:04;6.95;;;6.25;;
6823;SDS011;58633;49.470;11.004;2023-05-15T07:49:29;7.93;;;6.20;;
6823;SDS011;58633;49.470;11.004;2023-05-15T07:51:55;6.10;;;5.25;;
6823;SDS011;58633;49.470;11.004;2023-05-15T07:54:21;6.03;;;5.43;;
6823;SDS011;58633;49.470;11.004;2023-05-15T07:56:47;6.75;;;5.68;;
6823;SDS011;58633;49.470;11.004;2023-05-15T07:59:12;5.60;;;5.10;;
6823;SDS011;58633;49.470;11.004;2023-05-15T08:01:38;6.13;;;5.53;;
6823;SDS011;58633;49.470;11.004;2023-05-15T08:04:05;5.70;;;4.80;;
6823;SDS011;58633;49.470;11.004;2023-05-15T08:06:32;5.50;;;5.00;;
6823;SDS011;58633;49.470;11.004;2023-05-15T08:08:58;5.53;;;4.75;;
6823;SDS011;58633;49.470;11.004;2023-05-15T08:11:23;6.97;;;5.50;;
6823;SDS011;58633;49.470;11.004;2023-05-15T08:13:49;6.60;;;5.80;;
6823;SDS011;58633;49.470;11.004;2023-05-15T08:16:15;7.10;;;5.55;;
6823;SDS011;58633;49.470;11.004;2023-05-15T08:18:40;6.38;;;5.45;;
6823;SDS011;58633;49.470;11.004;2023-05-15T08:21:06;5.80;;;5.22;;
6823;SDS011;58633;49.470;11.004;2023-05-15T08:23:32;5.50;;;4.90;;
6823;SDS011;58633;49.470;11.004;2023-05-15T08:25:58;6.70;;;6.03;;
6823;SDS011;58633;49.470;11.004;2023-05-15T08:28:23;6.57;;;5.88;;
6823;SDS011;58633;49.470;11.004;2023-05-15T08:30:49;8.57;;;6.15;;
6823;SDS011;58633;49.470;11.004;2023-05-15T08:33:15;6.88;;;5.60;;
6823;SDS011;58633;49.470;11.004;2023-05-15T08:35:40;5.80;;;5.25;;
6823;SDS011;58633;49.470;11.004;2023-05-15T08:38:06;6.40;;;5.32;;
6823;SDS011;58633;49.470;11.004;2023-05-15T08:40:32;5.82;;;4.95;;
6823;SDS011;58633;49.470;11.004;2023-05-15T08:43:04;5.40;;;4.90;;
6823;SDS011;58633;49.470;11.004;2023-05-15T08:45:40;5.57;;;4.85;;
6823;SDS011;58633;49.470;11.004;2023-05-15T08:48:10;5.68;;;5.18;;
6823;SDS011;58633;49.470;11.004;2023-05-15T08:50:38;5.53;;;5.00;;
6823;SDS011;58633;49.470;11.004;2023-05-15T08:53:04;5.22;;;4.72;;
6823;SDS011;58633;49.470;11.004;2023-05-15T08:55:30;4.90;;;4.50;;
6823;SDS011;58633;49.470;11.004;2023-05-15T08:57:55;7.05;;;4.88;;
6823;SDS011;58633;49.470;11.004;2023-05-15T09:00:22;7.07;;;4.80;;
6823;SDS011;58633;49.470;11.004;2023-05-15T09:02:48;6.15;;;4.60;;
6823;SDS011;58633;49.470;11.004;2023-05-15T09:05:14;5.03;;;4.53;;
6823;SDS011;58633;49.470;11.004;2023-05-15T09:07:40;5.32;;;4.78;;
6823;SDS011;58633;49.470;11.004;2023-05-15T09:10:08;5.03;;;4.63;;
6823;SDS011;58633;49.470;11.004;2023-05-15T09:12:35;6.05;;;4.35;;
6823;SDS011;58633;49.470;11.004;2023-05-15T09:15:09;4.78;;;4.38;;
6823;SDS011;58633;49.470;11.004;2023-05-15T09:17:41;4.70;;;4.30;;
6823;SDS011;58633;49.470;11.004;2023-05-15T09:20:10;4.30;;;3.97;;
6823;SDS011;58633;49.470;11.004;2023-05-15T09:22:52;6.47;;;4.43;;
6823;SDS011;58633;49.470;11.004;2023-05-15T09:25:38;5.07;;;4.57;;
6823;SDS011;58633;49.470;11.004;2023-05-15T09:28:05;4.53;;;4.13;;
6823;SDS011;58633;49.470;11.004;2023-05-15T09:30:32;4.30;;;3.90;;
6823;SDS011;58633;49.470;11.004;2023-05-15T09:32:59;4.75;;;4.28;;
6823;SDS011;58633;49.470;11.004;2023-05-15T09:35:34;4.60;;;4.20;;
6823;SDS011;58633;49.470;11.004;2023-05-15T09:38:02;4.25;;;3.85;;
6823;SDS011;58633;49.470;11.004;2023-05-15T09:40:31;4.30;;;3.90;;
6823;SDS011;58633;49.470;11.004;2023-05-15T09:42:57;6.82;;;4.43;;
6823;SDS011;58633;49.470;11.004;2023-05-15T09:45:23;4.35;;;3.97;;
6823;SDS011;58633;49.470;11.004;2023-05-15T09:47:51;5.25;;;4.32;;
6823;SDS011;58633;49.470;11.004;2023-05-15T09:50:20;4.35;;;4.00;;
6823;SDS011;58633;49.470;11.004;2023-05-15T09:52:47;4.70;;;3.65;;
6823;SDS011;58633;49.470;11.004;2023-05-15T09:55:16;4.20;;;3.80;;
6823;SDS011;58633;49.470;11.004;2023-05-15T09:57:44;3.97;;;3.58;;
6823;SDS011;58633;49.470;11.004;2023-05-15T10:00:28;4.10;;;3.45;;
6823;SDS011;58633;49.470;11.004;2023-05-15T10:02:56;4.00;;;3.47;;
6823;SDS011;58633;49.470;11.004;2023-05-15T10:05:26;2.42;;;2.33;;
6823;SDS011;58633;49.470;11.004;2023-05-15T10:07:55;2.67;;;2.47;;
6823;SDS011;58633;49.470;11.004;2023-05-15T10:10:21;3.88;;;2.20;;
6823;SDS011;58633;49.470;11.004;2023-05-15T10:12:49;11.60;;;4.07;;
6823;SDS011;58633;49.470;11.004;2023-05-15T10:15:19;4.95;;;2.90;;
6823;SDS011;58633;49.470;11.004;2023-05-15T10:17:46;5.03;;;3.00;;
6823;SDS011;58633;49.470;11.004;2023-05-15T10:20:13;3.25;;;2.50;;
6823;SDS011;58633;49.470;11.004;2023-05-15T10:22:40;2.40;;;2.20;;
6823;SDS011;58633;49.470;11.004;2023-05-15T10:25:15;4.43;;;2.58;;
6823;SDS011;58633;49.470;11.004;2023-05-15T10:28:16;3.90;;;3.30;;
6823;SDS011;58633;49.470;11.004;2023-05-15T10:30:42;3.17;;;2.88;;
6823;SDS011;58633;49.470;11.004;2023-05-15T10:33:09;4.65;;;3.40;;
6823;SDS011;58633;49.470;11.004;2023-05-15T10:35:37;9.43;;;4.88;;
6823;SDS011;58633;49.470;11.004;2023-05-15T10:38:04;9.50;;;5.40;;
6823;SDS011;58633;49.470;11.004;2023-05-15T10:40:30;7.47;;;4.10;;
6823;SDS011;58633;49.470;11.004;2023-05-15T10:42:57;6.07;;;4.20;;
6823;SDS011;58633;49.470;11.004;2023-05-15T10:45:24;4.40;;;4.00;;
6823;SDS011;58633;49.470;11.004;2023-05-15T10:47:50;4.35;;;3.95;;
6823;SDS011;58633;49.470;11.004;2023-05-15T10:50:17;4.70;;;4.15;;
6823;SDS011;58633;49.470;11.004;2023-05-15T10:52:42;5.50;;;5.00;;
6823;SDS011;58633;49.470;11.004;2023-05-15T10:55:12;6.20;;;5.63;;
6823;SDS011;58633;49.470;11.004;2023-05-15T10:57:40;6.85;;;5.15;;
6823;SDS011;58633;49.470;11.004;2023-05-15T11:02:47;6.80;;;5.75;;
6823;SDS011;58633;49.470;11.004;2023-05-15T11:05:14;6.30;;;4.95;;
6823;SDS011;58633;49.470;11.004;2023-05-15T11:07:40;7.25;;;5.88;;
6823;SDS011;58633;49.470;11.004;2023-05-15T11:12:54;7.20;;;6.53;;
6823;SDS011;58633;49.470;11.004;2023-05-15T11:15:23;7.28;;;6.35;;
6823;SDS011;58633;49.470;11.004;2023-05-15T11:18:02;6.70;;;6.10;;
6823;SDS011;58633;49.470;11.004;2023-05-15T11:20:32;7.22;;;6.53;;
6823;SDS011;58633;49.470;11.004;2023-05-15T11:23:04;7.10;;;5.90;;
6823;SDS011;58633;49.470;11.004;2023-05-15T11:25:29;7.07;;;6.38;;
6823;SDS011;58633;49.470;11.004;2023-05-15T11:27:58;7.38;;;6.07;;
6823;SDS011;58633;49.470;11.004;2023-05-15T11:30:37;7.00;;;6.20;;
6823;SDS011;58633;49.470;11.004;2023-05-15T11:33:04;4.70;;;4.30;;
6823;SDS011;58633;49.470;11.004;2023-05-15T11:40:47;5.68;;;5.10;;
6823;SDS011;58633;49.470;11.004;2023-05-15T11:43:24;4.28;;;3.85;;
6823;SDS011;58633;49.470;11.004;2023-05-15T11:46:10;4.20;;;3.80;;
6823;SDS011;58633;49.470;11.004;2023-05-15T11:48:42;4.47;;;4.10;;
6823;SDS011;58633;49.470;11.004;2023-05-15T11:51:16;4.18;;;3.80;;
6823;SDS011;58633;49.470;11.004;2023-05-15T11:53:44;4.10;;;3.63;;
6823;SDS011;58633;49.470;11.004;2023-05-15T11:56:16;4.38;;;3.50;;
6823;SDS011;58633;49.470;11.004;2023-05-15T11:58:47;5.03;;;3.55;;
6823;SDS011;58633;49.470;11.004;2023-05-15T12:01:14;3.78;;;3.47;;
6823;SDS011;58633;49.470;11.004;2023-05-15T12:03:40;3.90;;;3.60;;
6823;SDS011;58633;49.470;11.004;2023-05-15T12:06:05;3.80;;;3.50;;
6823;SDS011;58633;49.470;11.004;2023-05-15T12:08:34;8.18;;;6.30;;
6823;SDS011;58633;49.470;11.004;2023-05-15T12:11:05;4.75;;;4.20;;
6823;SDS011;58633;49.470;11.004;2023-05-15T12:13:32;6.22;;;3.50;;
6823;SDS011;58633;49.470;11.004;2023-05-15T12:15:59;4.10;;;3.75;;
6823;SDS011;58633;49.470;11.004;2023-05-15T12:18:27;4.18;;;3.78;;
6823;SDS011;58633;49.470;11.004;2023-05-15T12:20:53;3.90;;;3.60;;
6823;SDS011;58633;49.470;11.004;2023-05-15T12:23:20;4.20;;;3.50;;
6823;SDS011;58633;49.470;11.004;2023-05-15T12:25:48;4.22;;;3.35;;
6823;SDS011;58633;49.470;11.004;2023-05-15T12:28:16;4.25;;;3.60;;
6823;SDS011;58633;49.470;11.004;2023-05-15T12:30:41;4.40;;;4.00;;
6823;SDS011;58633;49.470;11.004;2023-05-15T12:33:08;7.05;;;4.95;;
6823;SDS011;58633;49.470;11.004;2023-05-15T12:35:35;8.07;;;4.72;;
6823;SDS011;58633;49.470;11.004;2023-05-15T12:38:05;7.03;;;5.05;;
6823;SDS011;58633;49.470;11.004;2023-05-15T12:40:34;6.38;;;5.43;;
6823;SDS011;58633;49.470;11.004;2023-05-15T12:43:04;6.85;;;5.50;;
6823;SDS011;58633;49.470;11.004;2023-05-15T12:45:31;8.70;;;5.82;;
6823;SDS011;58633;49.470;11.004;2023-05-15T12:47:59;7.68;;;5.25;;
6823;SDS011;58633;49.470;11.004;2023-05-15T12:50:25;7.00;;;5.20;;
6823;SDS011;58633;49.470;11.004;2023-05-15T12:52:55;8.35;;;5.07;;
6823;SDS011;58633;49.470;11.004;2023-05-15T12:55:23;4.93;;;4.00;;
6823;SDS011;58633;49.470;11.004;2023-05-15T12:57:50;4.45;;;4.15;;
6823;SDS011;58633;49.470;11.004;2023-05-15T13:00:16;4.15;;;3.75;;
6823;SDS011;58633;49.470;11.004;2023-05-15T13:02:45;4.10;;;3.70;;
6823;SDS011;58633;49.470;11.004;2023-05-15T13:05:12;3.58;;;3.28;;
6823;SDS011;58633;49.470;11.004;2023-05-15T13:07:41;5.15;;;3.50;;
6823;SDS011;58633;49.470;11.004;2023-05-15T13:10:07;4.07;;;3.70;;
6823;SDS011;58633;49.470;11.004;2023-05-15T13:12:37;3.33;;;3.10;;
6823;SDS011;58633;49.470;11.004;2023-05-15T13:15:04;3.45;;;3.15;;
6823;SDS011;58633;49.470;11.004;2023-05-15T13:17:31;3.40;;;3.10;;
6823;SDS011;58633;49.470;11.004;2023-05-15T13:19:59;3.50;;;3.20;;
6823;SDS011;58633;49.470;11.004;2023-05-15T13:22:24;4.95;;;3.75;;
6823;SDS011;58633;49.470;11.004;2023-05-15T13:24:50;3.72;;;3.42;;
6823;SDS011;58633;49.470;11.004;2023-05-15T13:27:17;5.60;;;3.38;;
6823;SDS011;58633;49.470;11.004;2023-05-15T13:29:42;3.80;;;3.38;;
6823;SDS011;58633;49.470;11.004;2023-05-15T13:32:08;4.38;;;3.20;;
6823;SDS011;58633;49.470;11.004;2023-05-15T13:34:33;3.13;;;2.92;;
6823;SDS011;58633;49.470;11.004;2023-05-15T13:36:59;3.80;;;3.50;;
6823;SDS011;58633;49.470;11.004;2023-05-15T13:39:24;3.85;;;3.20;;
6823;SDS011;58633;49.470;11.004;2023-05-15T13:41:50;5.70;;;3.45;;
6823;SDS011;58633;49.470;11.004;2023-05-15T13:44:15;5.70;;;3.40;;
6823;SDS011;58633;49.470;11.004;2023-05-15T13:46:42;3.95;;;3.10;;
6823;SDS011;58633;49.470;11.004;2023-05-15T13:49:07;3.72;;;3.20;;
6823;SDS011;58633;49.470;11.004;2023-05-15T13:51:35;3.72;;;3.30;;
6823;SDS011;58633;49.470;11.004;2023-05-15T13:54:00;4.47;;;3.38;;
6823;SDS011;58633;49.470;11.004;2023-05-15T13:56:26;4.03;;;3.10;;
6823;SDS011;58633;49.470;11.004;2023-05-15T13:58:52;3.35;;;3.08;;
6823;SDS011;58633;49.470;11.004;2023-05-15T14:01:17;6.88;;;3.20;;
6823;SDS011;58633;49.470;11.004;2023-05-15T14:03:43;3.70;;;3.40;;
6823;SDS011;58633;49.470;11.004;2023-05-15T14:06:09;3.50;;;3.30;;
6823;SDS011;58633;49.470;11.004;2023-05-15T14:08:34;3.30;;;3.10;;
6823;SDS011;58633;49.470;11.004;2023-05-15T14:11:00;4.50;;;3.40;;
6823;SDS011;58633;49.470;11.004;2023-05-15T14:13:26;4.03;;;3.42;;
6823;SDS011;58633;49.470;11.004;2023-05-15T14:15:55;4.60;;;3.45;;
6823;SDS011;58633;49.470;11.004;2023-05-15T14:18:21;4.82;;;3.17;;
6823;SDS011;58633;49.470;11.004;2023-05-15T14:20:47;4.38;;;3.97;;
6823;SDS011;58633;49.470;11.004;2023-05-15T14:23:12;3.60;;;3.30;;
6823;SDS011;58633;49.470;11.004;2023-05-15T14:25:39;4.40;;;3.30;;
6823;SDS011;58633;49.470;11.004;2023-05-15T14:28:05;3.63;;;3.20;;
6823;SDS011;58633;49.470;11.004;2023-05-15T14:30:30;4.05;;;3.22;;
6823;SDS011;58633;49.470;11.004;2023-05-15T14:32:56;3.60;;;3.30;;
6823;SDS011;58633;49.470;11.004;2023-05-15T14:35:22;3.30;;;3.00;;
6823;SDS011;58633;49.470;11.004;2023-05-15T14:37:47;3.50;;;3.20;;
6823;SDS011;58633;49.470;11.004;2023-05-15T14:40:13;4.88;;;3.47;;
6823;SDS011;58633;49.470;11.004;2023-05-15T14:42:38;7.65;;;4.35;;
6823;SDS011;58633;49.470;11.004;2023-05-15T14:45:04;3.40;;;3.17;;
6823;SDS011;58633;49.470;11.004;2023-05-15T14:47:30;3.80;;;3.50;;
6823;SDS011;58633;49.470;11.004;2023-05-15T14:49:56;3.53;;;3.22;;
6823;SDS011;58633;49.470;11.004;2023-05-15T14:52:21;4.88;;;3.30;;
6823;SDS011;58633;49.470;11.004;2023-05-15T14:54:47;3.50;;;3.20;;
6823;SDS011;58633;49.470;11.004;2023-05-15T14:57:12;3.88;;;3.10;;
6823;SDS011;58633;49.470;11.004;2023-05-15T14:59:40;7.07;;;3.33;;
6823;SDS011;58633;49.470;11.004;2023-05-15T15:02:05;4.97;;;3.38;;
6823;SDS011;58633;49.470;11.004;2023-05-15T15:04:31;2.92;;;2.67;;
6823;SDS011;58633;49.470;11.004;2023-05-15T15:06:58;3.22;;;2.90;;
6823;SDS011;58633;49.470;11.004;2023-05-15T15:09:26;2.92;;;2.72;;
6823;SDS011;58633;49.470;11.004;2023-05-15T15:11:52;3.60;;;3.22;;
6823;SDS011;58633;49.470;11.004;2023-05-15T15:14:17;3.33;;;3.03;;